createdAt,value
2023-03-18T00:03:36.049Z,94.3
2023-03-18T00:08:42.394Z,94.3
2023-03-18T00:13:48.786Z,94.6
2023-03-18T00:18:55.220Z,94.7
2023-03-18T00:23:50.496Z,94.8
2023-03-18T00:29:07.949Z,94.8
2023-03-18T00:34:14.332Z,94.8
2023-03-18T00:39:20.757Z,94.8
2023-03-18T00:44:27.157Z,94.8
2023-03-18T00:49:33.519Z,94.8
2023-03-18T00:54:39.899Z,95.0
2023-03-18T00:59:36.262Z,95.0
2023-03-18T01:09:49.232Z,95.1
2023-03-18T01:15:05.660Z,95.1
2023-03-18T01:20:12.113Z,95.1
2023-03-18T01:25:18.505Z,95.1
2023-03-18T01:31:09.036Z,95.3
2023-03-18T01:35:21.261Z,95.3
2023-03-18T01:40:36.666Z,95.8
2023-03-18T01:45:48.106Z,95.5
2023-03-18T01:50:50.423Z,95.9
2023-03-18T01:55:56.795Z,96.0
2023-03-18T02:01:03.373Z,96.0
2023-03-18T02:06:09.712Z,96.1
2023-03-18T02:11:15.067Z,96.2
2023-03-18T02:16:22.463Z,96.3
2023-03-18T02:21:28.875Z,96.1
2023-03-18T02:32:10.773Z,96.2
2023-03-18T02:37:17.182Z,96.4
2023-03-18T02:41:59.586Z,96.6
2023-03-18T02:46:55.921Z,96.8
2023-03-18T02:52:12.330Z,96.8
2023-03-18T02:57:20.322Z,96.9
2023-03-18T03:02:26.683Z,96.8
2023-03-18T03:07:33.089Z,96.7
2023-03-18T03:12:39.482Z,97.0
2023-03-18T03:17:45.829Z,96.9
2023-03-18T03:22:53.389Z,96.8
2023-03-18T03:27:59.790Z,96.9
2023-03-18T03:33:06.234Z,97.0
2023-03-18T03:38:12.531Z,97.1
2023-03-18T03:43:18.927Z,97.0
2023-03-18T03:48:26.076Z,97.1
2023-03-18T03:53:32.442Z,97.2
2023-03-18T03:58:38.863Z,97.2
2023-03-18T04:03:45.245Z,97.4
2023-03-18T04:09:17.219Z,97.4
2023-03-18T04:13:59.562Z,97.3
2023-03-18T04:19:05.899Z,97.4
2023-03-18T04:24:16.279Z,97.4
2023-03-18T04:29:18.667Z,97.5
2023-03-18T04:34:25.021Z,97.6
2023-03-18T04:39:31.395Z,97.6
2023-03-18T04:44:37.803Z,97.4
2023-03-18T04:49:44.199Z,97.5
2023-03-18T04:55:14.617Z,97.7
2023-03-18T04:59:56.984Z,97.7
2023-03-18T05:05:03.379Z,97.7
2023-03-18T05:10:44.036Z,97.7
2023-03-18T05:15:51.524Z,98.0
2023-03-18T05:21:22.029Z,97.8
2023-03-18T05:26:28.514Z,97.8
2023-03-18T05:31:10.887Z,98.1
2023-03-18T05:36:17.262Z,98.1
2023-03-18T05:41:23.605Z,98.3
2023-03-18T05:46:31.211Z,98.6
2023-03-18T05:57:07.984Z,99.0
2023-03-18T06:01:50.335Z,99.1
2023-03-18T06:12:27.232Z,99.7
2023-03-18T06:17:13.589Z,99.8
2023-03-18T06:22:40.075Z,99.9
2023-03-18T06:27:22.424Z,99.9
2023-03-18T06:32:28.843Z,99.9
2023-03-18T06:37:56.801Z,99.9
2023-03-18T06:42:43.140Z,99.9
2023-03-18T06:47:39.519Z,99.9
2023-03-18T06:58:02.387Z,99.9
2023-03-18T07:03:08.901Z,99.9
2023-03-18T07:08:39.543Z,99.9
2023-03-18T07:13:22.053Z,99.9
2023-03-18T07:18:28.552Z,99.9
2023-03-18T07:23:35.220Z,99.9
2023-03-18T07:28:42.859Z,99.9
2023-03-18T07:49:34.018Z,99.9
2023-03-18T07:54:16.316Z,99.9
2023-03-18T07:59:22.704Z,99.9
2023-03-18T08:04:19.184Z,99.9
2023-03-18T08:14:41.946Z,99.9
2023-03-18T08:19:48.323Z,99.9
2023-03-18T08:24:54.732Z,99.9
2023-03-18T08:30:03.515Z,99.9
2023-03-18T08:35:07.493Z,99.9
2023-03-18T08:40:37.932Z,99.9
2023-03-18T08:45:20.242Z,99.9
2023-03-18T08:50:26.671Z,99.9
2023-03-18T08:55:32.627Z,99.9
2023-03-18T09:00:39.573Z,99.9
2023-03-18T09:05:35.947Z,99.9
2023-03-18T09:10:53.865Z,99.9
2023-03-18T09:16:00.271Z,99.9
2023-03-18T09:22:22.333Z,99.9
2023-03-18T09:26:16.578Z,99.9
2023-03-18T09:41:39.394Z,99.9
2023-03-18T09:46:45.919Z,99.9
2023-03-18T09:52:16.203Z,99.9
2023-03-18T09:56:58.547Z,99.9
2023-03-18T10:02:04.972Z,99.9
2023-03-18T10:12:17.862Z,99.9
2023-03-18T10:17:24.276Z,99.9
2023-03-18T10:27:36.962Z,99.5
2023-03-18T10:32:50.045Z,97.3
2023-03-18T10:37:49.720Z,95.5
2023-03-18T10:42:56.100Z,94.1
2023-03-18T10:48:04.876Z,93.7
2023-03-18T10:53:08.898Z,93.4
2023-03-18T10:58:15.375Z,93.2
2023-03-18T11:03:41.853Z,93.3
2023-03-18T11:08:28.184Z,93.8
2023-03-18T11:18:40.945Z,93.8
2023-03-18T11:23:47.365Z,93.4
2023-03-18T11:28:53.716Z,94.3
2023-03-18T11:36:48.424Z,95.4
2023-03-18T11:49:19.218Z,94.5
2023-03-18T11:54:25.642Z,92.3
2023-03-18T11:59:32.560Z,92.6
2023-03-18T12:04:38.966Z,93.0
2023-03-18T12:09:45.349Z,92.7
2023-03-18T12:14:51.722Z,92.6
2023-03-18T12:20:01.659Z,78.9
2023-03-18T12:25:08.064Z,77.4
2023-03-18T12:30:34.693Z,80.1
2023-03-18T12:35:20.933Z,80.5
2023-03-18T12:45:34.188Z,77.5
2023-03-18T12:50:43.700Z,83.4
2023-03-18T12:56:10.171Z,85.3
2023-03-18T13:00:56.537Z,87.2
2023-03-18T13:06:02.987Z,87.4
2023-03-18T13:11:12.079Z,86.3
2023-03-18T13:16:15.896Z,86.4
2023-03-18T13:21:22.240Z,86.2
2023-03-18T13:26:28.645Z,86.3
2023-03-18T13:31:35.235Z,86.2
2023-03-18T13:36:42.824Z,87.7
2023-03-18T13:41:49.313Z,88.8
2023-03-18T13:47:19.820Z,89.7
2023-03-18T13:52:02.079Z,86.5
2023-03-18T13:57:08.477Z,89.4
2023-03-18T14:02:15.021Z,85.4
2023-03-18T14:07:21.388Z,88.2
2023-03-18T14:12:27.727Z,88.8
2023-03-18T14:17:34.133Z,89.6
2023-03-18T14:27:46.939Z,89.0
2023-03-18T14:32:57.344Z,89.4
2023-03-18T14:37:59.672Z,90.0
2023-03-18T14:43:06.121Z,89.6
2023-03-18T14:48:12.555Z,89.8
2023-03-18T14:53:18.926Z,90.0
2023-03-18T14:58:25.341Z,90.2
2023-03-18T15:03:31.697Z,88.5
2023-03-18T15:08:47.814Z,89.7
2023-03-18T15:13:44.492Z,89.8
2023-03-18T15:19:50.957Z,90.0
2023-03-18T15:23:57.253Z,90.0
2023-03-18T15:34:10.024Z,90.2
2023-03-18T15:39:36.435Z,90.4
2023-03-18T15:44:46.838Z,90.5
2023-03-18T15:54:35.694Z,90.7
2023-03-18T15:59:32.046Z,90.8
2023-03-18T16:09:54.817Z,91.2
2023-03-18T16:20:07.876Z,91.5
2023-03-18T16:25:14.388Z,91.8
2023-03-18T16:35:27.230Z,91.9
2023-03-18T16:40:33.587Z,92.0
2023-03-18T16:45:39.406Z,92.2
2023-03-18T16:56:27.237Z,92.3
2023-03-18T17:01:34.862Z,92.5
2023-03-18T17:06:41.214Z,92.7
2023-03-18T17:11:47.671Z,92.6
2023-03-18T17:22:54.455Z,93.0
2023-03-18T17:28:06.115Z,92.8
2023-03-18T17:32:49.637Z,92.7
2023-03-18T17:42:52.309Z,92.9
2023-03-18T17:48:08.706Z,92.8
2023-03-18T17:53:15.071Z,92.9
2023-03-18T17:58:21.450Z,93.0
2023-03-18T18:03:28.052Z,93.1
2023-03-18T18:08:34.484Z,92.8
2023-03-18T18:13:41.017Z,92.9
2023-03-18T18:19:07.524Z,92.9
2023-03-18T18:23:53.937Z,93.0
2023-03-18T18:28:59.310Z,93.0
2023-03-18T18:34:10.731Z,93.0
2023-03-18T18:39:13.159Z,93.1
2023-03-18T18:44:19.529Z,93.2
2023-03-18T18:49:25.938Z,93.2
2023-03-18T18:54:31.318Z,93.2
2023-03-18T19:04:45.112Z,93.3
2023-03-18T19:14:57.852Z,93.3
2023-03-18T19:20:04.273Z,93.3
2023-03-18T19:30:17.034Z,93.2
2023-03-18T19:35:47.524Z,93.3
2023-03-18T19:40:30.312Z,93.2
2023-03-18T19:45:36.736Z,93.4
2023-03-18T19:50:42.755Z,93.3
2023-03-18T19:55:49.204Z,93.2
2023-03-18T20:00:55.570Z,93.2
2023-03-18T20:06:01.932Z,93.2
2023-03-18T20:11:08.356Z,93.4
2023-03-18T20:16:14.752Z,93.3
2023-03-18T20:21:21.174Z,93.3
2023-03-18T20:26:26.680Z,93.4
2023-03-18T20:31:38.148Z,93.4
2023-03-18T20:36:40.447Z,93.7
2023-03-18T20:41:46.830Z,93.3
2023-03-18T20:46:52.332Z,93.4
2023-03-18T20:57:06.243Z,93.4
2023-03-18T21:02:37.220Z,93.4
2023-03-18T21:07:43.766Z,93.4
2023-03-18T21:12:26.092Z,93.4
2023-03-18T21:17:56.498Z,93.3
2023-03-18T21:22:38.841Z,93.4
2023-03-18T21:27:45.259Z,93.3
2023-03-18T21:32:51.851Z,93.4
2023-03-18T21:37:58.093Z,93.5
2023-03-18T21:48:10.860Z,93.4
2023-03-18T21:58:23.643Z,93.4
2023-03-18T22:03:30.025Z,93.5
2023-03-18T22:08:36.429Z,93.8
2023-03-18T22:13:42.836Z,93.9
2023-03-18T22:19:51.935Z,93.9
2023-03-18T22:23:59.168Z,93.9
2023-03-18T22:29:25.797Z,94.0
2023-03-18T22:34:32.175Z,93.9
2023-03-18T22:39:38.537Z,93.9
2023-03-18T22:44:44.977Z,94.0
2023-03-18T22:49:31.269Z,93.9
2023-03-18T23:00:56.189Z,94.0
2023-03-18T23:05:14.456Z,93.9
2023-03-18T23:10:16.951Z,93.9
2023-03-18T23:20:34.095Z,93.8
2023-03-18T23:25:16.076Z,93.8
2023-03-18T23:30:22.461Z,94.1
2023-03-18T23:46:01.637Z,93.7
2023-03-18T23:46:55.685Z,93.8
2023-03-18T23:50:47.928Z,93.9
2023-03-18T23:56:14.369Z,93.8
